NCAR-RAP Real-Time Weather Data

Output produced by METARs form (10 April 2020  06:45 UTC)
found at http://weather.rap.ucar.edu/surface/
 
KFSD 100556Z AUTO 28004KT 10SM CLR M04/M08 A3020 RMK AO2 SLP243 T10391078 10028 21056 400501056 53000
KFSD 100456Z 31005KT 10SM CLR M03/M07 A3019 RMK AO2 SLP239 T10281072
KFSD 100356Z 30006KT 10SM CLR M03/M07 A3020 RMK AO2 SLP244 T10281072
KFSD 100256Z 30005KT 10SM CLR M02/M07 A3020 RMK AO2 SLP242 T10171072 53010
KFSD 100156Z 31007KT 10SM CLR M01/M07 A3018 RMK AO2 SLP236 T10111072
KFSD 100056Z 34011KT 10SM SCT049 02/M08 A3017 RMK AO2 PK WND 34026/0005 SLP232 T00171078
KFSD 092356Z 33016G24KT 10SM SCT049 03/M08 A3017 RMK AO2 PK WND 32028/2305 SLP230 60000 T00281083 10050 20017 53011
KFSD 092256Z 35017G29KT 10SM BKN048 03/M08 A3015 RMK AO2 PK WND 33031/2213 SLP225 T00331083
KFSD 092156Z 35022G29KT 10SM BKN050 03/M09 A3014 RMK AO2 PK WND 32033/2140 SLP218 T00331089
KFSD 092056Z 34020G34KT 10SM FEW038 SCT044 BKN055 03/M07 A3013 RMK AO2 PK WND 33035/2017 SNE04 SLP218 VCSH NE P0000 60000 T00281067 51011
KFSD 091956Z 33021G29KT 9SM -SN BKN043 BKN050 03/M08 A3012 RMK AO2 PK WND 33033/1935 SNB05 SLP214 P0000 T00331078
KFSD 091856Z 33024G33KT 10SM SCT038 BKN050 OVC060 02/M08 A3011 RMK AO2 PK WND 31035/1835 SNB09E56 SLP212 P0000 T00171078 $
KFSD 091814Z 33023G34KT 9SM -SN BKN030 BKN040 03/M07 A3011 RMK AO2 PK WND 34034/1759 SNB09 P0000 T00331072 $
KFSD 091756Z 32023G35KT 10SM BKN028 03/M06 A3010 RMK AO2 PK WND 32042/1713 SNB05E28 SLP205 P0000 60000 T00331056 10039 21006 51027 $
KFSD 091723Z 32019G38KT 6SM -SN FEW018 SCT028 BKN042 01/M03 A3011 RMK AO2 PK WND 32042/1713 SNB05 P0000 T00061028 $
KFSD 091720Z 33020G42KT 3/4SM -SN SCT018 BKN028 BKN042 00/M03 A3010 RMK AO2 PK WND 32042/1713 TWR VIS 1 SNB05 PRESRR P0000 T00001033 RVRNO $
KFSD 091717Z 33025G42KT 1/4SM +SN BKN023 BKN035 OVC046 01/M04 A3011 RMK AO2 PK WND 32042/1713 TWR VIS 1/2 SNB05 PRESRR P0000 T00061039 RVRNO $
KFSD 091715Z 33028G42KT 1/2SM SN BKN020 OVC050 02/M04 A3010 RMK AO2 PK WND 32042/1713 SNB05 VIS 1/2V5 P0000 T00221044 RVRNO $
KFSD 091656Z 32020G33KT 9SM FEW038 SCT046 BKN065 03/M05 A3008 RMK AO2 PK WND 32044/1559 SNE05B30E56 SLP199 P0000 T00331050 $
KFSD 091556Z 34033G46KT 5SM -SN FEW043 SCT050 BKN060 02/M07 A3006 RMK AO2 PK WND 34046/1556 SNB31 SLP192 VIS W 1 P0000 T00221067
KFSD 091456Z 33027G40KT 10SM BKN044 BKN075 03/M08 A3002 RMK AO2 PK WND 33040/1452 SLP176 T00281078 53016
KFSD 091356Z 34022G30KT 10SM SCT038 BKN070 03/M06 A3000 RMK AO2 PK WND 32033/1303 SLP170 T00281061
KFSD 091256Z 31018G26KT 10SM SCT080 02/M04 A2998 RMK AO2 PK WND 30026/1252 SLP161 T00221044
KFSD 091156Z 28009KT 10SM FEW080 01/M05 A2997 RMK AO2 SLP158 70001 T00061050 10033 20006 57006
KFSD 091056Z 27010KT 10SM FEW160 01/M04 A2997 RMK AO2 SLP158 T00111044
KFSD 090956Z 29013KT 10SM OVC160 03/M05 A2998 RMK AO2 SLP161 T00281050
KFSD 090856Z 29012KT 10SM CLR 03/M04 A2998 RMK AO2 SLP161 T00281044 56007
KFSD 090756Z 28010KT 10SM CLR 02/M05 A2998 RMK AO2 SLP162 T00171050